Time;durP1;ratioP1;P1;durP2;ratioP2;P2;SDS_P1;SDS_P2;PMS_P1;PMS_P2;Temp;Humidity;BMP_temperature;BMP_pressure;BME280_temperature;BME280_humidity;BME280_pressure;Samples;Min_cycle;Max_cycle;Signal;HPM_P1;HPM_P2
2023/03/14 00:01:17;;;;;;;;;;;;;;;10.38;100.00;163278.72;5069253;28;19939;-60
2023/03/14 00:03:43;;;;;;;;;;;;;;;10.39;100.00;163281.38;5050921;28;19915;-60
2023/03/14 00:06:09;;;;;;;;;;;;;;;10.39;100.00;163281.38;5049290;28;19913;-60
2023/03/14 00:08:34;;;;;;;;;;;;;;;10.36;100.00;163273.25;5051475;28;19909;-60
2023/03/14 00:11:06;;;;;;;;;;;;;;;10.35;100.00;163270.56;5057045;28;19927;-60
2023/03/14 00:13:31;;;;;;;;;;;;;;;10.35;100.00;163270.56;5070644;28;20329;-61
2023/03/14 00:16:01;;;;;;;;;;;;;;;10.32;100.00;163263.81;5069228;28;19916;-61
2023/03/14 00:18:26;;;;;;;;;;;;;;;10.29;100.00;163254.38;5070986;28;19912;-59
2023/03/14 00:20:52;;;;;;;;;;;;;;;10.26;100.00;163246.25;5068403;28;19916;-59
2023/03/14 00:23:17;;;;;;;;;;;;;;;10.23;100.00;163238.19;5074501;28;20363;-59
2023/03/14 00:25:42;;;;;;;;;;;;;;;10.27;100.00;163250.34;5073042;28;19916;-59
2023/03/14 00:28:07;;;;;;;;;;;;;;;10.29;100.00;163254.38;5074775;28;20011;-59
2023/03/14 00:30:32;;;;;;;;;;;;;;;10.31;100.00;163259.78;5072595;28;19963;-59
2023/03/14 00:32:57;;;;;;;;;;;;;;;10.37;100.00;163276.03;5074388;28;19965;-59
2023/03/14 00:35:23;;;;;;;;;;;;;;;10.36;100.00;163273.25;5072672;28;20318;-60
2023/03/14 00:37:48;;;;;;;;;;;;;;;10.31;100.00;163259.78;5074143;28;19962;-59
2023/03/14 00:40:13;;;;;;;;;;;;;;;10.27;100.00;163250.34;5072877;28;19965;-59
2023/03/14 00:42:38;;;;;;;;;;;;;;;10.25;100.00;163244.94;5073773;28;19916;-59
2023/03/14 00:45:04;;;;;;;;;;;;;;;10.23;100.00;163239.53;5072745;28;19917;-59
2023/03/14 00:47:29;;;;;;;;;;;;;;;10.24;100.00;163240.91;5074521;28;19969;-59
2023/03/14 00:49:54;;;;;;;;;;;;;;;10.21;100.00;163234.09;5072429;28;19927;-59
2023/03/14 00:52:20;;;;;;;;;;;;;;;10.24;100.00;163242.22;5073615;28;19916;-59
2023/03/14 00:54:45;;;;;;;;;;;;;;;10.34;100.00;163266.53;5072502;28;19920;-59
2023/03/14 00:57:10;;;;;;;;;;;;;;;10.39;100.00;163281.38;5074005;28;19912;-59
2023/03/14 00:59:35;;;;;;;;;;;;;;;10.42;100.00;163288.19;5072314;28;20375;-59
2023/03/14 01:02:00;;;;;;;;;;;;;;;10.46;100.00;163300.28;5073512;28;19912;-59
2023/03/14 01:04:26;;;;;;;;;;;;;;;10.47;100.00;163301.66;5072589;28;19908;-59
2023/03/14 01:06:51;;;;;;;;;;;;;;;10.40;100.00;163284.09;5073244;28;19954;-59
2023/03/14 01:09:17;;;;;;;;;;;;;;;10.27;100.00;163248.97;5074097;28;19959;-59
2023/03/14 01:11:46;;;;;;;;;;;;;;;10.15;100.00;163219.28;5051864;28;19917;-59
2023/03/14 01:14:11;;;;;;;;;;;;;;;10.04;100.00;163189.59;5053824;28;19920;-59
2023/03/14 01:16:36;;;;;;;;;;;;;;;9.93;100.00;163159.94;5071370;28;19912;-59
2023/03/14 01:19:02;;;;;;;;;;;;;;;9.81;100.00;163128.88;5055827;28;19908;-60
2023/03/14 01:21:29;;;;;;;;;;;;;;;9.72;100.00;163105.91;5071793;28;19927;-60
2023/03/14 01:23:55;;;;;;;;;;;;;;;9.64;100.00;163084.38;5073154;28;19927;-60
2023/03/14 01:26:22;;;;;;;;;;;;;;;9.59;100.00;163070.84;5072275;28;19912;-60
2023/03/14 01:28:48;;;;;;;;;;;;;;;9.59;100.00;163070.84;5073489;28;19920;-60
2023/03/14 01:31:14;;;;;;;;;;;;;;;9.60;100.00;163073.56;5071788;28;19999;-59
2023/03/14 01:33:40;;;;;;;;;;;;;;;9.63;100.00;163081.69;5072466;28;20003;-60
2023/03/14 01:36:05;;;;;;;;;;;;;;;9.66;100.00;163089.75;5071674;28;19912;-60
2023/03/14 01:38:32;;;;;;;;;;;;;;;9.71;100.00;163101.91;5073679;28;19909;-60
2023/03/14 01:40:57;;;;;;;;;;;;;;;9.75;100.00;163114.03;5071721;28;19922;-60
2023/03/14 01:43:24;;;;;;;;;;;;;;;9.77;100.00;163118.06;5072527;28;19916;-61
2023/03/14 01:46:04;;;;;;;;;;;;;;;9.75;100.00;163114.03;5071504;28;20069;-59
2023/03/14 01:48:38;;;;;;;;;;;;;;;9.78;100.00;163120.78;5073419;28;20406;-59
2023/03/14 01:51:06;;;;;;;;;;;;;;;9.78;100.00;163122.16;5071245;28;19912;-59
2023/03/14 01:53:31;;;;;;;;;;;;;;;9.82;100.00;163132.94;5073263;28;20264;-61
2023/03/14 01:55:57;;;;;;;;;;;;;;;9.87;100.00;163143.69;5071554;28;19946;-61
2023/03/14 01:58:25;;;;;;;;;;;;;;;9.89;100.00;163149.09;5072865;28;19919;-61
2023/03/14 02:00:50;;;;;;;;;;;;;;;9.90;100.00;163151.81;5071215;28;19954;-59
2023/03/14 02:03:17;;;;;;;;;;;;;;;9.95;100.00;163165.28;5072981;28;19909;-59
2023/03/14 02:05:43;;;;;;;;;;;;;;;9.94;100.00;163162.63;5071030;28;19944;-59
2023/03/14 02:08:11;;;;;;;;;;;;;;;9.91;100.00;163154.50;5073131;28;20282;-60
2023/03/14 02:10:38;;;;;;;;;;;;;;;9.83;100.00;163134.25;5070943;28;19963;-59
2023/03/14 02:13:04;;;;;;;;;;;;;;;9.77;100.00;163119.44;5072013;28;19988;-59
2023/03/14 02:15:30;;;;;;;;;;;;;;;9.81;100.00;163130.22;5071065;28;19987;-59
2023/03/14 02:17:56;;;;;;;;;;;;;;;9.84;100.00;163138.34;5072395;28;19912;-59
2023/03/14 02:20:24;;;;;;;;;;;;;;;9.88;100.00;163147.78;5070556;28;19969;-59
2023/03/14 02:22:50;;;;;;;;;;;;;;;9.92;100.00;163157.22;5072164;28;19912;-59
2023/03/14 02:25:18;;;;;;;;;;;;;;;9.94;100.00;163162.63;5071097;28;19919;-60
2023/03/14 02:27:44;;;;;;;;;;;;;;;9.92;100.00;163157.22;5071978;28;19914;-59
2023/03/14 02:30:10;;;;;;;;;;;;;;;9.98;100.00;163173.41;5070687;28;20015;-59
2023/03/14 02:32:37;;;;;;;;;;;;;;;9.99;100.00;163177.44;5072147;28;19970;-59
2023/03/14 02:35:11;;;;;;;;;;;;;;;10.00;100.00;163178.81;5070105;28;19927;-60
2023/03/14 02:37:39;;;;;;;;;;;;;;;9.99;100.00;163176.09;5072005;28;19912;-59
2023/03/14 02:40:04;;;;;;;;;;;;;;;9.89;100.00;163149.09;5070653;28;19954;-59
2023/03/14 02:42:30;;;;;;;;;;;;;;;9.89;100.00;163149.09;5071235;28;19971;-59
2023/03/14 02:45:01;;;;;;;;;;;;;;;9.89;100.00;163149.09;5069300;28;19958;-60
2023/03/14 02:47:27;;;;;;;;;;;;;;;9.85;100.00;163139.66;5072326;28;20083;-59
2023/03/14 02:49:55;;;;;;;;;;;;;;;9.78;100.00;163120.78;5069845;28;19920;-60
2023/03/14 02:52:20;;;;;;;;;;;;;;;9.73;100.00;163108.63;5071874;28;19916;-60
2023/03/14 02:54:46;;;;;;;;;;;;;;;9.78;100.00;163120.78;5070146;28;19962;-60
2023/03/14 02:57:11;;;;;;;;;;;;;;;9.79;100.00;163124.81;5071593;28;19962;-60
2023/03/14 02:59:36;;;;;;;;;;;;;;;9.76;100.00;163116.75;5069800;28;20283;-60
2023/03/14 03:02:01;;;;;;;;;;;;;;;9.73;100.00;163108.63;5071459;28;19909;-60
2023/03/14 03:04:26;;;;;;;;;;;;;;;9.67;100.00;163093.81;5070149;28;20015;-60
2023/03/14 03:06:52;;;;;;;;;;;;;;;9.59;100.00;163070.84;5071535;28;19954;-60
2023/03/14 03:09:17;;;;;;;;;;;;;;;9.58;100.00;163068.16;5071842;28;20387;-60
2023/03/14 03:11:42;;;;;;;;;;;;;;;9.46;100.00;163038.50;5069408;28;19923;-60
2023/03/14 03:14:07;;;;;;;;;;;;;;;9.40;100.00;163022.31;5053495;28;19974;-60
2023/03/14 03:16:32;;;;;;;;;;;;;;;9.26;100.00;162984.56;5069926;28;20385;-60
2023/03/14 03:18:57;;;;;;;;;;;;;;;9.08;100.00;162937.38;5070825;28;19923;-60
2023/03/14 03:21:23;;;;;;;;;;;;;;;9.05;100.00;162930.59;5070061;28;19916;-60
2023/03/14 03:23:48;;;;;;;;;;;;;;;8.94;100.00;162900.94;5071722;28;19912;-60
2023/03/14 03:26:13;;;;;;;;;;;;;;;8.86;100.00;162882.06;5069449;28;19916;-60
2023/03/14 03:28:38;;;;;;;;;;;;;;;8.83;100.00;162873.94;5071437;28;19947;-60
2023/03/14 03:31:07;;;;;;;;;;;;;;;8.82;100.00;162871.31;5070021;28;19923;-60
2023/03/14 03:33:33;;;;;;;;;;;;;;;8.82;100.00;162871.31;5070582;28;20375;-60
2023/03/14 03:35:58;;;;;;;;;;;;;;;8.85;100.00;162878.03;5069352;28;20011;-60
2023/03/14 03:38:23;;;;;;;;;;;;;;;8.84;100.00;162876.66;5071803;28;19927;-60
2023/03/14 03:40:48;;;;;;;;;;;;;;;8.86;100.00;162882.06;5069266;28;19977;-60
2023/03/14 03:43:13;;;;;;;;;;;;;;;8.85;100.00;162879.38;5070915;28;19924;-60
2023/03/14 03:45:39;;;;;;;;;;;;;;;8.87;100.00;162884.78;5069648;28;19916;-60
2023/03/14 03:48:04;;;;;;;;;;;;;;;8.91;100.00;162892.81;5070911;28;19909;-60
2023/03/14 03:50:29;;;;;;;;;;;;;;;8.95;100.00;162903.66;5069799;28;19924;-60
2023/03/14 03:52:54;;;;;;;;;;;;;;;8.93;100.00;162899.63;5070869;28;19945;-60
2023/03/14 03:55:19;;;;;;;;;;;;;;;8.91;100.00;162892.81;5069338;28;19927;-60
2023/03/14 03:57:44;;;;;;;;;;;;;;;8.89;100.00;162890.19;5075582;28;20390;-60
2023/03/14 04:00:12;;;;;;;;;;;;;;;8.85;100.00;162879.38;5076470;28;19957;-61
2023/03/14 04:02:37;;;;;;;;;;;;;;;8.76;100.00;162855.09;5077663;28;19912;-61
2023/03/14 04:05:02;;;;;;;;;;;;;;;8.70;100.00;162840.28;5076145;28;19920;-60
2023/03/14 04:07:27;;;;;;;;;;;;;;;8.60;100.00;162811.97;5077835;28;19927;-60
2023/03/14 04:09:52;;;;;;;;;;;;;;;8.48;100.00;162780.97;5076310;28;19912;-60
2023/03/14 04:12:18;;;;;;;;;;;;;;;8.40;100.00;162760.69;5077204;28;20404;-61
2023/03/14 04:14:43;;;;;;;;;;;;;;;8.33;100.00;162743.19;5075611;28;19959;-60
2023/03/14 04:17:08;;;;;;;;;;;;;;;8.42;100.00;162766.09;5077894;28;19930;-60
2023/03/14 04:19:33;;;;;;;;;;;;;;;8.48;100.00;162782.28;5075969;28;20286;-60
2023/03/14 04:21:59;;;;;;;;;;;;;;;8.53;100.00;162794.44;5076874;28;19958;-59
2023/03/14 04:24:24;;;;;;;;;;;;;;;8.53;100.00;162795.75;5076236;28;19915;-59
2023/03/14 04:26:49;;;;;;;;;;;;;;;8.53;100.00;162795.75;5076979;28;19995;-59
2023/03/14 04:29:14;;;;;;;;;;;;;;;8.52;100.00;162793.09;5077686;28;19912;-59
2023/03/14 04:31:39;;;;;;;;;;;;;;;8.55;100.00;162799.84;5075585;28;19985;-59
2023/03/14 04:34:05;;;;;;;;;;;;;;;8.59;100.00;162810.59;5076675;28;19920;-60
2023/03/14 04:36:30;;;;;;;;;;;;;;;8.64;100.00;162822.75;5076137;28;19912;-59
2023/03/14 04:38:55;;;;;;;;;;;;;;;8.60;100.00;162813.31;5077185;28;19963;-59
2023/03/14 04:41:20;;;;;;;;;;;;;;;8.60;100.00;162813.31;5075647;28;20048;-59
2023/03/14 04:43:45;;;;;;;;;;;;;;;8.60;100.00;162813.31;5076970;28;19923;-59
2023/03/14 04:46:10;;;;;;;;;;;;;;;8.63;100.00;162821.41;5076110;28;19919;-59
2023/03/14 04:48:37;;;;;;;;;;;;;;;8.67;100.00;162832.19;5076407;28;20331;-59
2023/03/14 04:51:02;;;;;;;;;;;;;;;8.70;100.00;162838.91;5075943;28;20054;-59
2023/03/14 04:53:27;;;;;;;;;;;;;;;8.73;100.00;162847.03;5077239;28;20011;-60
2023/03/14 04:55:54;;;;;;;;;;;;;;;8.73;100.00;162847.03;5075124;28;20394;-59
2023/03/14 04:58:20;;;;;;;;;;;;;;;8.77;100.00;162857.78;5077518;28;19908;-59
2023/03/14 05:00:46;;;;;;;;;;;;;;;8.82;100.00;162871.31;5075567;28;20447;-59
2023/03/14 05:03:11;;;;;;;;;;;;;;;8.86;100.00;162882.06;5076496;28;19944;-59
2023/03/14 05:05:36;;;;;;;;;;;;;;;8.86;100.00;162882.06;5075606;28;19916;-59
2023/03/14 05:08:01;;;;;;;;;;;;;;;8.89;100.00;162888.81;5075465;28;20014;-59
2023/03/14 05:10:26;;;;;;;;;;;;;;;8.92;100.00;162895.53;5071590;28;19969;-60
2023/03/14 05:12:51;;;;;;;;;;;;;;;8.92;100.00;162895.53;5072813;28;20272;-59
2023/03/14 05:15:17;;;;;;;;;;;;;;;8.92;100.00;162896.91;5072186;28;19924;-60
2023/03/14 05:17:42;;;;;;;;;;;;;;;8.92;100.00;162895.53;5073346;28;19912;-60
2023/03/14 05:20:08;;;;;;;;;;;;;;;8.92;100.00;162895.53;5071784;28;20374;-58
2023/03/14 05:22:34;;;;;;;;;;;;;;;8.92;100.00;162895.53;5073550;28;19916;-59
2023/03/14 05:24:59;;;;;;;;;;;;;;;8.91;100.00;162892.81;5071648;28;19965;-59
2023/03/14 05:27:24;;;;;;;;;;;;;;;8.87;100.00;162884.78;5073884;28;19978;-59
2023/03/14 05:29:49;;;;;;;;;;;;;;;8.86;100.00;162880.75;5072022;28;19919;-59
2023/03/14 05:32:14;;;;;;;;;;;;;;;8.88;100.00;162887.47;5072988;28;19912;-59
2023/03/14 05:34:39;;;;;;;;;;;;;;;8.89;100.00;162890.19;5071789;28;20379;-58
2023/03/14 05:37:05;;;;;;;;;;;;;;;8.94;100.00;162900.94;5072124;28;19913;-59
2023/03/14 05:39:30;;;;;;;;;;;;;;;8.94;100.00;162900.94;5071549;28;19916;-58
2023/03/14 05:41:55;;;;;;;;;;;;;;;8.91;100.00;162894.22;5072839;28;19955;-59
2023/03/14 05:44:21;;;;;;;;;;;;;;;8.96;100.00;162906.34;5072357;28;19908;-57
2023/03/14 05:46:46;;;;;;;;;;;;;;;8.99;100.00;162914.41;5072784;28;20290;-59
2023/03/14 05:49:11;;;;;;;;;;;;;;;8.97;100.00;162909.06;5073370;28;20290;-59
2023/03/14 05:51:36;;;;;;;;;;;;;;;8.97;100.00;162909.06;5071723;28;19939;-59
2023/03/14 05:54:01;;;;;;;;;;;;;;;8.98;100.00;162911.72;5072906;28;19950;-59
2023/03/14 05:56:26;;;;;;;;;;;;;;;8.95;100.00;162903.66;5068358;28;20310;-59
2023/03/14 05:58:52;;;;;;;;;;;;;;;8.92;100.00;162895.53;5071699;28;19912;-59
2023/03/14 06:01:17;;;;;;;;;;;;;;;8.87;100.00;162884.78;5070070;28;19920;-58
2023/03/14 06:03:42;;;;;;;;;;;;;;;8.80;100.00;162865.91;5071736;28;20407;-59
2023/03/14 06:06:07;;;;;;;;;;;;;;;8.72;100.00;162844.31;5070332;28;19924;-59
2023/03/14 06:08:34;;;;;;;;;;;;;;;8.66;100.00;162828.16;5071616;28;19920;-59
2023/03/14 06:10:59;;;;;;;;;;;;;;;8.53;100.00;162795.75;5067661;28;20057;-59
2023/03/14 06:13:24;;;;;;;;;;;;;;;8.51;100.00;162790.41;5071727;28;20011;-59
2023/03/14 06:15:49;;;;;;;;;;;;;;;8.49;100.00;162785.00;5069900;28;19916;-59
2023/03/14 06:18:15;;;;;;;;;;;;;;;8.45;100.00;162774.13;5071028;28;19912;-59
2023/03/14 06:20:40;;;;;;;;;;;;;;;8.42;100.00;162766.09;5069935;28;19916;-59
2023/03/14 06:23:06;;;;;;;;;;;;;;;8.46;100.00;162775.50;5071504;28;20345;-59
2023/03/14 06:25:31;;;;;;;;;;;;;;;8.46;100.00;162776.84;5069974;28;19917;-58
2023/03/14 06:27:57;;;;;;;;;;;;;;;8.45;100.00;162774.13;5072300;28;20287;-59
2023/03/14 06:30:22;;;;;;;;;;;;;;;8.51;100.00;162790.41;5071026;28;20005;-59
2023/03/14 06:32:47;;;;;;;;;;;;;;;8.56;100.00;162802.53;5072154;28;20389;-59
2023/03/14 06:35:12;;;;;;;;;;;;;;;8.63;100.00;162821.41;5068872;28;19920;-59
2023/03/14 06:37:37;;;;;;;;;;;;;;;8.65;100.00;162825.44;5069901;28;19908;-59
2023/03/14 06:40:03;;;;;;;;;;;;;;;8.69;100.00;162836.22;5068790;28;20240;-59
2023/03/14 06:42:28;;;;;;;;;;;;;;;8.70;100.00;162838.91;5070441;28;19999;-59
2023/03/14 06:44:53;;;;;;;;;;;;;;;8.80;100.00;162865.91;5069017;28;20067;-59
2023/03/14 06:47:18;;;;;;;;;;;;;;;8.98;100.00;162911.72;5070835;28;19916;-59
2023/03/14 06:49:43;;;;;;;;;;;;;;;9.03;100.00;162926.56;5070515;28;19913;-59
2023/03/14 06:52:09;;;;;;;;;;;;;;;9.05;100.00;162930.59;5071603;28;19908;-59
2023/03/14 06:54:34;;;;;;;;;;;;;;;9.02;100.00;162922.53;5070026;28;19916;-59
2023/03/14 06:56:59;;;;;;;;;;;;;;;8.95;100.00;162904.97;5071787;28;19904;-59
2023/03/14 06:59:24;;;;;;;;;;;;;;;8.88;100.00;162887.47;5070403;28;20006;-59
2023/03/14 07:01:50;;;;;;;;;;;;;;;8.83;100.00;162873.94;5071381;28;19905;-59
2023/03/14 07:04:15;;;;;;;;;;;;;;;8.78;100.00;162860.50;5072245;28;19908;-59
2023/03/14 07:06:44;;;;;;;;;;;;;;;8.78;100.00;162860.50;5070580;28;20332;-59
2023/03/14 07:09:09;;;;;;;;;;;;;;;8.84;100.00;162875.34;5070649;28;20268;-59
2023/03/14 07:11:34;;;;;;;;;;;;;;;8.92;100.00;162895.53;5070117;28;19972;-59
2023/03/14 07:14:00;;;;;;;;;;;;;;;8.99;100.00;162914.41;5071582;28;19961;-59
2023/03/14 07:16:28;;;;;;;;;;;;;;;9.05;100.00;162930.59;5069782;28;19935;-59
2023/03/14 07:18:53;;;;;;;;;;;;;;;9.13;100.00;162952.16;5071418;28;19915;-59
2023/03/14 07:21:18;;;;;;;;;;;;;;;9.17;100.00;162961.59;5069762;28;20306;-59
2023/03/14 07:23:43;;;;;;;;;;;;;;;9.12;100.00;162949.47;5071192;28;19908;-59
2023/03/14 07:26:09;;;;;;;;;;;;;;;9.14;100.00;162953.53;5070055;28;19935;-59
2023/03/14 07:28:34;;;;;;;;;;;;;;;9.14;100.00;162953.53;5071505;28;20279;-59
2023/03/14 07:30:59;;;;;;;;;;;;;;;9.15;100.00;162957.56;5069073;28;19966;-59
2023/03/14 07:33:24;;;;;;;;;;;;;;;9.16;100.00;162960.28;5071110;28;19912;-59
2023/03/14 07:35:49;;;;;;;;;;;;;;;9.16;100.00;162958.91;5069362;28;20291;-60
2023/03/14 07:38:15;;;;;;;;;;;;;;;9.14;100.00;162954.88;5070938;28;19912;-59
2023/03/14 07:40:40;;;;;;;;;;;;;;;9.18;100.00;162965.69;5069665;28;19966;-59
2023/03/14 07:43:06;;;;;;;;;;;;;;;9.24;100.00;162979.16;5071351;28;19916;-59
2023/03/14 07:45:31;;;;;;;;;;;;;;;9.26;100.00;162984.56;5069570;28;19948;-59
2023/03/14 07:47:57;;;;;;;;;;;;;;;9.27;100.00;162987.28;5071140;28;19970;-59
2023/03/14 07:50:23;;;;;;;;;;;;;;;9.32;100.00;163000.75;5069867;28;19974;-59
2023/03/14 07:52:48;;;;;;;;;;;;;;;9.31;100.00;162998.03;5070544;28;20363;-59
2023/03/14 07:55:14;;;;;;;;;;;;;;;9.27;100.00;162987.28;5069807;28;19917;-59
2023/03/14 07:57:39;;;;;;;;;;;;;;;9.27;100.00;162987.28;5070939;28;19908;-59
2023/03/14 08:00:05;;;;;;;;;;;;;;;9.20;100.00;162971.03;5069639;28;19955;-61
2023/03/14 08:02:30;;;;;;;;;;;;;;;9.20;100.00;162971.03;5071290;28;19908;-58
2023/03/14 08:04:55;;;;;;;;;;;;;;;9.19;100.00;162968.38;5069519;28;19912;-59
2023/03/14 08:07:20;;;;;;;;;;;;;;;9.19;100.00;162968.38;5070738;28;19962;-59
2023/03/14 08:09:45;;;;;;;;;;;;;;;9.17;100.00;162962.97;5069466;28;20529;-58
2023/03/14 08:12:11;;;;;;;;;;;;;;;9.06;100.00;162933.28;5071119;28;19916;-59
2023/03/14 08:14:36;;;;;;;;;;;;;;;9.05;100.00;162930.59;5069175;28;19913;-59
2023/03/14 08:17:01;;;;;;;;;;;;;;;9.05;100.00;162930.59;5071093;28;19908;-59
2023/03/14 08:19:26;;;;;;;;;;;;;;;8.88;100.00;162886.09;5069585;28;19908;-59
2023/03/14 08:21:51;;;;;;;;;;;;;;;8.13;100.00;162690.63;5070779;28;19908;-60
2023/03/14 08:24:17;;;;;;;;;;;;;;;7.63;100.00;162559.91;5071023;28;19919;-60
2023/03/14 08:26:42;;;;;;;;;;;;;;;7.28;100.00;162469.63;5069277;28;19913;-60
2023/03/14 08:29:08;;;;;;;;;;;;;;;7.14;100.00;162433.31;5070900;28;20383;-60
2023/03/14 08:31:33;;;;;;;;;;;;;;;6.93;100.00;162378.06;5069182;28;19916;-60
2023/03/14 08:33:59;;;;;;;;;;;;;;;6.87;100.00;162361.91;5070482;28;19924;-60
2023/03/14 08:36:24;;;;;;;;;;;;;;;6.78;100.00;162337.66;5069424;28;19932;-60
2023/03/14 08:38:50;;;;;;;;;;;;;;;6.69;100.00;162313.44;5070142;28;19909;-60
2023/03/14 08:41:15;;;;;;;;;;;;;;;6.61;100.00;162293.25;5069134;28;19912;-59
2023/03/14 08:43:40;;;;;;;;;;;;;;;6.47;100.00;162256.88;5071405;28;19978;-60
2023/03/14 08:46:05;;;;;;;;;;;;;;;6.40;100.00;162238.03;5072728;28;20430;-60
2023/03/14 08:48:30;;;;;;;;;;;;;;;6.39;100.00;162235.34;5074481;28;20333;-60
2023/03/14 08:51:10;;;;;;;;;;;;;;;6.32;100.00;162219.19;5072781;28;19919;-60
2023/03/14 08:53:36;;;;;;;;;;;;;;;6.24;100.00;162196.31;5074124;28;19912;-60
2023/03/14 08:56:01;;;;;;;;;;;;;;;6.22;100.00;162192.25;5072679;28;19920;-60
2023/03/14 08:58:27;;;;;;;;;;;;;;;6.18;100.00;162181.50;5074394;28;19915;-60
2023/03/14 09:00:52;;;;;;;;;;;;;;;6.15;100.00;162173.41;5072292;28;20003;-60
2023/03/14 09:03:17;;;;;;;;;;;;;;;6.12;100.00;162165.38;5074391;28;20030;-60
2023/03/14 09:05:42;;;;;;;;;;;;;;;6.06;100.00;162150.56;5072669;28;20049;-60
2023/03/14 09:08:07;;;;;;;;;;;;;;;6.09;100.00;162157.28;5073517;28;19915;-60
2023/03/14 09:10:33;;;;;;;;;;;;;;;6.11;100.00;162162.66;5072623;28;20421;-60
2023/03/14 09:12:58;;;;;;;;;;;;;;;6.10;100.00;162159.97;5073818;28;19916;-60
2023/03/14 09:15:23;;;;;;;;;;;;;;;6.00;100.00;162135.72;5072004;28;19938;-60
2023/03/14 09:17:49;;;;;;;;;;;;;;;6.02;100.00;162139.81;5073819;28;20003;-59
2023/03/14 09:20:14;;;;;;;;;;;;;;;6.02;100.00;162141.13;5072316;28;19912;-60
2023/03/14 09:22:39;;;;;;;;;;;;;;;5.83;100.00;162091.28;5073232;28;20410;-60
2023/03/14 09:25:04;;;;;;;;;;;;;;;5.45;100.00;161990.41;5072470;28;19978;-59
2023/03/14 09:27:29;;;;;;;;;;;;;;;5.27;100.00;161944.66;5073949;28;19909;-59
2023/03/14 09:29:55;;;;;;;;;;;;;;;5.11;100.00;161902.97;5071508;28;19940;-59
2023/03/14 09:32:20;;;;;;;;;;;;;;;4.98;100.00;161869.31;5073487;28;20375;-60
2023/03/14 09:34:45;;;;;;;;;;;;;;;4.87;100.00;161841.09;5071702;28;19916;-60
2023/03/14 09:37:11;;;;;;;;;;;;;;;4.81;100.00;161823.59;5073483;28;19953;-59
2023/03/14 09:39:36;;;;;;;;;;;;;;;4.79;100.00;161819.56;5072048;28;20363;-59
2023/03/14 09:42:03;;;;;;;;;;;;;;;4.73;100.00;161803.44;5073418;28;19925;-59
2023/03/14 09:44:34;;;;;;;;;;;;;;;4.57;100.00;161761.78;5071448;28;20429;-59
2023/03/14 09:47:19;;;;;;;;;;;;;;;4.57;100.00;161761.78;5073147;28;19920;-59
2023/03/14 09:49:44;;;;;;;;;;;;;;;4.65;100.00;161783.28;5071755;28;20286;-59
2023/03/14 09:52:16;;;;;;;;;;;;;;;4.77;100.00;161814.19;5072966;28;19995;-59
2023/03/14 09:54:43;;;;;;;;;;;;;;;4.84;100.00;161831.69;5070699;28;19979;-59
2023/03/14 09:57:16;;;;;;;;;;;;;;;4.78;100.00;161815.56;5073124;28;19908;-59
2023/03/14 09:59:43;;;;;;;;;;;;;;;4.64;100.00;161780.59;5071527;28;20778;-59
2023/03/14 10:02:14;;;;;;;;;;;;;;;4.68;100.00;161790.00;5072856;28;19908;-59
2023/03/14 10:04:43;;;;;;;;;;;;;;;4.76;100.00;161812.84;5071268;28;19908;-59
2023/03/14 10:07:13;;;;;;;;;;;;;;;4.67;100.00;161788.63;5072617;28;19908;-59
2023/03/14 10:09:38;;;;;;;;;;;;;;;4.83;100.00;161828.97;5071484;28;19912;-59
2023/03/14 10:12:06;;;;;;;;;;;;;;;4.85;100.00;161834.38;5073051;28;19915;-59
2023/03/14 10:14:33;;;;;;;;;;;;;;;4.92;100.00;161854.53;5071371;28;19920;-58
2023/03/14 10:17:04;;;;;;;;;;;;;;;5.05;100.00;161886.81;5072800;28;19908;-59
2023/03/14 10:19:30;;;;;;;;;;;;;;;4.99;100.00;161870.69;5071301;28;19912;-58
2023/03/14 10:21:56;;;;;;;;;;;;;;;4.94;100.00;161858.59;5072263;28;19947;-59
2023/03/14 10:24:21;;;;;;;;;;;;;;;4.97;100.00;161866.63;5069842;28;19920;-57
2023/03/14 10:26:53;;;;;;;;;;;;;;;5.19;100.00;161923.13;5073560;28;19909;-59
2023/03/14 10:29:19;;;;;;;;;;;;;;;5.29;100.00;161950.03;5072334;28;19988;-58
2023/03/14 10:32:01;;;;;;;;;;;;;;;5.34;100.00;161963.47;5070794;28;19935;-59
2023/03/14 10:34:28;;;;;;;;;;;;;;;5.38;100.00;161972.88;5070863;28;19913;-59
2023/03/14 10:36:59;;;;;;;;;;;;;;;5.19;100.00;161923.13;5053859;28;20302;-59
2023/03/14 10:39:27;;;;;;;;;;;;;;;5.34;100.00;161963.47;5071030;28;19915;-59
2023/03/14 10:41:54;;;;;;;;;;;;;;;5.50;100.00;162003.81;5072008;28;19916;-59
2023/03/14 10:44:21;;;;;;;;;;;;;;;5.55;100.00;162017.28;5072050;28;19934;-60
2023/03/14 10:46:55;;;;;;;;;;;;;;;5.65;100.00;162042.88;5070673;28;19912;-59
2023/03/14 10:49:28;;;;;;;;;;;;;;;5.74;100.00;162065.72;5072514;28;19908;-62
2023/03/14 10:51:54;;;;;;;;;;;;;;;5.82;100.00;162088.59;5070173;28;19970;-59
2023/03/14 10:54:20;;;;;;;;;;;;;;;6.00;100.00;162135.72;5072060;28;19916;-60
2023/03/14 10:56:55;;;;;;;;;;;;;;;6.25;100.00;162200.34;5070243;28;19920;-59
2023/03/14 10:59:20;;;;;;;;;;;;;;;6.43;100.00;162246.13;5071669;28;19912;-59
2023/03/14 11:01:48;;;;;;;;;;;;;;;6.39;100.00;162236.72;5070158;28;20006;-59
2023/03/14 11:04:19;;;;;;;;;;;;;;;6.57;100.00;162283.81;5072034;28;19908;-60
2023/03/14 11:06:54;;;;;;;;;;;;;;;6.70;100.00;162316.13;5065195;28;20325;-59
2023/03/14 11:09:30;;;;;;;;;;;;;;;6.63;100.00;162298.59;5061814;28;19919;-59
2023/03/14 11:12:00;;;;;;;;;;;;;;;6.62;100.00;162297.28;5069781;28;19916;-59
2023/03/14 11:14:46;;;;;;;;;;;;;;;6.54;100.00;162274.41;5068683;28;20275;-59
2023/03/14 11:17:21;;;;;;;;;;;;;;;6.24;100.00;162196.31;5071330;28;19908;-59
2023/03/14 11:19:51;;;;;;;;;;;;;;;5.90;100.00;162108.81;5049023;28;19936;-60
2023/03/14 11:22:22;;;;;;;;;;;;;;;5.69;100.00;162053.63;5058640;28;19947;-59
2023/03/14 11:24:53;;;;;;;;;;;;;;;5.69;100.00;162053.63;5069180;28;20352;-60
2023/03/14 11:27:23;;;;;;;;;;;;;;;5.80;100.00;162081.88;5069832;28;19961;-59
2023/03/14 11:29:51;;;;;;;;;;;;;;;5.91;100.00;162110.13;5067723;28;19916;-59
2023/03/14 11:32:36;;;;;;;;;;;;;;;6.08;100.00;162154.56;5069685;28;19908;-59
2023/03/14 11:35:03;;;;;;;;;;;;;;;5.91;100.00;162111.50;5067207;28;19920;-59
2023/03/14 11:37:45;;;;;;;;;;;;;;;5.93;100.00;162116.84;5070489;28;20405;-59
2023/03/14 11:40:17;;;;;;;;;;;;;;;5.50;100.00;162003.81;5069097;28;19991;-59
2023/03/14 11:42:44;;;;;;;;;;;;;;;5.29;100.00;161950.03;5069747;28;20332;-59
2023/03/14 11:45:18;;;;;;;;;;;;;;;5.15;100.00;161912.38;5069478;28;19936;-59
2023/03/14 11:47:44;;;;;;;;;;;;;;;5.16;100.00;161915.06;5070833;28;20375;-59
2023/03/14 11:50:16;;;;;;;;;;;;;;;5.28;100.00;161946.00;5069092;28;19962;-59
2023/03/14 11:52:46;;;;;;;;;;;;;;;5.23;100.00;161935.22;5071038;28;19920;-59
2023/03/14 11:55:25;;;;;;;;;;;;;;;5.23;100.00;161933.91;5069321;28;20308;-59
2023/03/14 11:57:51;;;;;;;;;;;;;;;5.39;100.00;161976.97;5070471;28;19977;-59
2023/03/14 12:00:16;;;;;;;;;;;;;;;5.49;100.00;162001.13;5069766;28;20002;-59
2023/03/14 12:02:47;;;;;;;;;;;;;;;5.64;100.00;162040.19;5070728;28;20309;-59
2023/03/14 12:05:18;;;;;;;;;;;;;;;5.88;100.00;162103.41;5068914;28;19999;-59
2023/03/14 12:08:03;;;;;;;;;;;;;;;6.19;100.00;162185.53;5070615;28;19908;-59
2023/03/14 12:10:29;;;;;;;;;;;;;;;6.44;100.00;162248.84;5069524;28;19924;-59
2023/03/14 12:12:54;;;;;;;;;;;;;;;6.65;100.00;162304.00;5070046;28;19908;-59
2023/03/14 12:15:21;;;;;;;;;;;;;;;6.80;100.00;162343.06;5069227;28;19924;-59
2023/03/14 12:17:46;;;;;;;;;;;;;;;7.18;100.00;162441.34;5071785;28;19946;-59
2023/03/14 12:20:14;;;;;;;;;;;;;;;7.28;100.00;162469.63;5054779;28;20403;-59
2023/03/14 12:22:50;;;;;;;;;;;;;;;7.42;100.00;162504.66;5074493;28;19947;-59
2023/03/14 12:25:18;;;;;;;;;;;;;;;7.52;100.00;162531.59;5073222;28;19919;-59
2023/03/14 12:27:45;;;;;;;;;;;;;;;7.72;100.00;162584.16;5073808;28;19951;-59
2023/03/14 12:30:24;;;;;;;;;;;;;;;8.01;100.00;162659.63;5073063;28;19923;-59
2023/03/14 12:33:08;;;;;;;;;;;;;;;8.05;100.00;162670.38;5074650;28;19973;-59